메인 페이지
METAR-TAF:

METAR-TAF

공항 :

시모어 공항

발트라 섬, 갈라파고스, 에콰도르

위도: 00-27-14S, 경도: 090-15-57W, 고도: 63m

현재 날씨관측

예보는 4 시간 51분 전, 22:00시(UTC)에 발표되었습니다.
동북동7kt
온도 30°C
습도 59%
기압 1011 hPa
시정 10km 이상
고도 2300ft 상공 구름 조금

METAR: SEGS 022200Z 06007KT 9999 FEW023 30/21 Q1011 RMK A2988

시각: 20:51 (02:51 UTC)


TAF: 누락

4,000개 이상의 공항 관측 자료 및 예보 (METAR 및 TAF 보고).

지도상에서 검색 가능한 기상관측소가 노란 점과 빨간 점으로 표시되어 있습니다.

기상관측소 명을 보려면 표시 위로 마우스를 이동하세요.

날씨 관측과 예보를 보려면 클릭하세요.

지도 변경 : 확대하려면 엑스 표시가 있는 녹색 버튼, 축소하려면 빼기 표시가 있는 녹색 버튼, 다음 페이지의 지도를 보려면 녹색 화살표를 클릭하세요.


METAR-TAF: